createdAt,value
2019-03-15T00:01:41.787Z,10.90
2019-03-15T00:04:10.805Z,10.90
2019-03-15T00:06:39.553Z,10.90
2019-03-15T00:09:08.930Z,10.90
2019-03-15T00:11:37.655Z,10.90
2019-03-15T00:14:06.497Z,10.90
2019-03-15T00:16:35.189Z,10.80
2019-03-15T00:19:04.187Z,10.80
2019-03-15T00:21:32.929Z,10.80
2019-03-15T00:24:01.632Z,10.80
2019-03-15T00:26:30.348Z,10.80
2019-03-15T00:28:59.075Z,10.70
2019-03-15T00:31:27.783Z,10.70
2019-03-15T00:33:56.509Z,10.70
2019-03-15T00:36:25.245Z,10.70
2019-03-15T00:38:54.102Z,10.70
2019-03-15T00:41:22.959Z,10.70
2019-03-15T00:43:51.745Z,10.60
2019-03-15T00:46:20.609Z,10.60
2019-03-15T00:48:51.165Z,10.60
2019-03-15T00:51:19.869Z,10.60
2019-03-15T00:53:48.589Z,10.60
2019-03-15T00:56:17.296Z,10.60
2019-03-15T00:58:46.017Z,10.50
2019-03-15T01:01:14.753Z,10.50
2019-03-15T01:03:43.489Z,10.50
2019-03-15T01:06:12.454Z,10.50
2019-03-15T01:08:41.153Z,10.50
2019-03-15T01:11:09.869Z,10.50
2019-03-15T01:13:38.627Z,10.50
2019-03-15T01:16:07.613Z,10.50
2019-03-15T01:18:36.338Z,10.50
2019-03-15T01:21:05.163Z,10.50
2019-03-15T01:23:33.897Z,10.50
2019-03-15T01:26:02.662Z,10.50
2019-03-15T01:28:31.377Z,10.40
2019-03-15T01:31:00.085Z,10.40
2019-03-15T01:33:28.809Z,10.40
2019-03-15T01:35:57.509Z,10.40
2019-03-15T01:38:26.352Z,10.40
2019-03-15T01:40:55.045Z,10.40
2019-03-15T01:43:23.777Z,10.40
2019-03-15T01:45:52.907Z,10.40
2019-03-15T01:48:21.617Z,10.40
2019-03-15T01:50:50.518Z,10.40
2019-03-15T01:53:19.293Z,10.40
2019-03-15T01:55:47.994Z,10.40
2019-03-15T01:58:16.717Z,10.40
2019-03-15T02:00:45.433Z,10.40
2019-03-15T02:03:14.143Z,10.40
2019-03-15T02:05:42.865Z,10.40
2019-03-15T02:08:11.577Z,10.40
2019-03-15T02:10:40.282Z,10.40
2019-03-15T02:13:09.022Z,10.40
2019-03-15T02:15:37.718Z,10.40
2019-03-15T02:18:06.509Z,10.50
2019-03-15T02:20:35.237Z,10.50
2019-03-15T02:23:03.968Z,10.50
2019-03-15T02:25:32.738Z,10.50
2019-03-15T02:28:01.583Z,10.50
2019-03-15T02:30:30.296Z,10.50
2019-03-15T02:32:59.054Z,10.50
2019-03-15T02:35:27.776Z,10.50
2019-03-15T02:37:56.501Z,10.50
2019-03-15T02:40:25.231Z,10.50
2019-03-15T02:42:53.972Z,10.50
2019-03-15T02:45:22.721Z,10.50
2019-03-15T02:47:51.427Z,10.50
2019-03-15T02:50:20.306Z,10.50
2019-03-15T02:52:49.071Z,10.50
2019-03-15T02:55:19.059Z,10.50
2019-03-15T02:57:47.787Z,10.50
2019-03-15T03:00:19.658Z,10.40
2019-03-15T03:02:48.405Z,10.40
2019-03-15T03:05:17.121Z,10.40
2019-03-15T03:07:45.844Z,10.40
2019-03-15T03:10:14.644Z,10.40
2019-03-15T03:12:44.020Z,10.30
2019-03-15T03:15:13.035Z,10.30
2019-03-15T03:17:41.772Z,10.30
2019-03-15T03:20:10.682Z,10.30
2019-03-15T03:22:39.394Z,10.30
2019-03-15T03:25:08.178Z,10.30
2019-03-15T03:27:36.925Z,10.30
2019-03-15T03:30:06.039Z,10.30
2019-03-15T03:32:34.778Z,10.30
2019-03-15T03:35:03.739Z,10.30
2019-03-15T03:37:32.519Z,10.30
2019-03-15T03:40:02.125Z,10.30
2019-03-15T03:42:31.301Z,10.40
2019-03-15T03:45:00.209Z,10.40
2019-03-15T03:47:32.499Z,10.40
2019-03-15T03:49:59.681Z,10.40
2019-03-15T03:52:28.410Z,10.50
2019-03-15T03:54:57.678Z,10.50
2019-03-15T03:57:26.797Z,10.50
2019-03-15T03:59:55.625Z,10.50
2019-03-15T04:02:24.490Z,10.50
2019-03-15T04:04:53.355Z,10.60
2019-03-15T04:07:22.758Z,10.60
2019-03-15T04:09:51.481Z,10.60
2019-03-15T04:12:20.286Z,10.60
2019-03-15T04:14:48.992Z,10.60
2019-03-15T04:17:17.707Z,10.60
2019-03-15T04:19:46.614Z,10.60
2019-03-15T04:22:15.333Z,10.60
2019-03-15T04:24:44.055Z,10.70
2019-03-15T04:27:12.788Z,10.70
2019-03-15T04:29:41.500Z,10.70
2019-03-15T04:32:10.280Z,10.70
2019-03-15T04:34:39.023Z,10.70
2019-03-15T04:37:09.325Z,10.80
2019-03-15T04:39:38.251Z,10.80
2019-03-15T04:42:06.984Z,10.80
2019-03-15T04:44:35.679Z,10.80
2019-03-15T04:47:04.401Z,10.80
2019-03-15T04:49:33.241Z,10.80
2019-03-15T04:52:01.945Z,10.80
2019-03-15T04:54:30.733Z,10.80
2019-03-15T04:56:59.463Z,10.80
2019-03-15T04:59:28.166Z,10.80
2019-03-15T05:01:56.900Z,10.80
2019-03-15T05:04:25.612Z,10.80
2019-03-15T05:06:54.333Z,10.80
2019-03-15T05:09:23.065Z,10.90
2019-03-15T05:11:51.787Z,10.80
2019-03-15T05:14:20.525Z,10.80
2019-03-15T05:16:49.258Z,10.80
2019-03-15T05:19:18.084Z,10.80
2019-03-15T05:21:46.908Z,10.80
2019-03-15T05:24:15.729Z,10.90
2019-03-15T05:26:44.473Z,10.90
2019-03-15T05:29:13.256Z,10.80
2019-03-15T05:31:41.982Z,10.80
2019-03-15T05:34:10.777Z,10.80
2019-03-15T05:36:39.503Z,10.80
2019-03-15T05:39:08.220Z,10.90
2019-03-15T05:41:36.951Z,10.80
2019-03-15T05:44:05.669Z,10.80
2019-03-15T05:46:34.371Z,10.80
2019-03-15T05:49:03.153Z,10.80
2019-03-15T05:51:31.885Z,10.80
2019-03-15T05:54:00.613Z,10.80
2019-03-15T05:56:29.331Z,10.80
2019-03-15T05:58:58.057Z,10.80
2019-03-15T06:01:26.753Z,10.80
2019-03-15T06:03:55.465Z,10.80
2019-03-15T06:06:24.181Z,10.80
2019-03-15T06:08:52.893Z,10.70
2019-03-15T06:11:21.626Z,10.80
2019-03-15T06:13:50.325Z,10.80
2019-03-15T06:16:19.056Z,10.70
2019-03-15T06:18:47.778Z,10.70
2019-03-15T06:21:16.541Z,10.70
2019-03-15T06:23:45.261Z,10.70
2019-03-15T06:26:14.064Z,10.70
2019-03-15T06:28:42.778Z,10.70
2019-03-15T06:31:11.477Z,10.70
2019-03-15T06:33:40.225Z,10.70
2019-03-15T06:36:08.993Z,10.70
2019-03-15T06:38:37.996Z,10.70
2019-03-15T06:41:06.806Z,10.60
2019-03-15T06:43:35.526Z,10.60
2019-03-15T06:46:04.330Z,10.60
2019-03-15T06:48:33.065Z,10.60
2019-03-15T06:51:01.757Z,10.60
2019-03-15T06:53:30.477Z,10.60
2019-03-15T06:55:59.226Z,10.60
2019-03-15T06:58:28.042Z,10.60
2019-03-15T07:00:57.417Z,10.60
2019-03-15T07:03:26.362Z,10.50
2019-03-15T07:05:55.054Z,10.60
2019-03-15T07:08:23.798Z,10.50
2019-03-15T07:10:52.617Z,10.60
2019-03-15T07:13:21.503Z,10.60
2019-03-15T07:15:50.202Z,10.60
2019-03-15T07:18:19.048Z,10.60
2019-03-15T07:20:47.927Z,10.50
2019-03-15T07:23:16.639Z,10.50
2019-03-15T07:25:45.361Z,10.50
2019-03-15T07:28:14.061Z,10.50
2019-03-15T07:30:42.796Z,10.50
2019-03-15T07:33:11.625Z,10.50
2019-03-15T07:35:40.411Z,10.50
2019-03-15T07:38:09.154Z,10.50
2019-03-15T07:40:37.860Z,10.60
2019-03-15T07:43:06.598Z,10.60
2019-03-15T07:45:35.338Z,10.60
2019-03-15T07:48:04.123Z,10.60
2019-03-15T07:50:32.822Z,10.60
2019-03-15T07:53:01.537Z,10.70
2019-03-15T07:55:30.570Z,10.70
2019-03-15T07:57:59.257Z,10.70
2019-03-15T08:00:27.969Z,10.80
2019-03-15T08:02:56.693Z,10.80
2019-03-15T08:05:25.401Z,10.80
2019-03-15T08:07:54.189Z,10.80
2019-03-15T08:10:22.915Z,10.90
2019-03-15T08:12:51.641Z,10.90
2019-03-15T08:15:20.485Z,10.90
2019-03-15T08:17:50.327Z,11.00
2019-03-15T08:20:19.102Z,11.00
2019-03-15T08:22:47.836Z,11.00
2019-03-15T08:25:16.609Z,11.10
2019-03-15T08:27:45.318Z,11.20
2019-03-15T08:30:14.673Z,11.20
2019-03-15T08:32:44.252Z,11.20
2019-03-15T08:35:13.496Z,11.30
2019-03-15T08:37:42.313Z,11.40
2019-03-15T08:40:11.198Z,11.40
2019-03-15T08:42:39.981Z,11.50
2019-03-15T08:45:11.080Z,11.60
2019-03-15T08:47:39.871Z,11.70
2019-03-15T08:50:10.454Z,11.80
2019-03-15T08:52:41.964Z,11.90
2019-03-15T08:55:09.965Z,12.00
2019-03-15T08:57:38.661Z,12.10
2019-03-15T09:00:08.749Z,12.20
2019-03-15T09:02:37.637Z,12.40
2019-03-15T09:05:07.001Z,12.50
2019-03-15T09:07:35.702Z,12.60
2019-03-15T09:10:04.742Z,12.70
2019-03-15T09:12:33.479Z,12.80
2019-03-15T09:15:02.232Z,12.90
2019-03-15T09:17:31.002Z,13.00
2019-03-15T09:19:59.765Z,13.10
2019-03-15T09:22:28.581Z,13.20
2019-03-15T09:24:57.361Z,13.30
2019-03-15T09:27:26.181Z,13.40
2019-03-15T09:29:54.905Z,13.40
2019-03-15T09:32:23.617Z,13.50
2019-03-15T09:34:55.619Z,13.60
2019-03-15T09:37:22.925Z,13.60
2019-03-15T09:39:51.663Z,13.70
2019-03-15T09:42:20.394Z,13.80
2019-03-15T09:44:49.176Z,13.80
2019-03-15T09:47:17.895Z,13.80
2019-03-15T09:49:46.625Z,13.90
2019-03-15T09:52:15.374Z,13.90
2019-03-15T09:54:44.145Z,14.00
2019-03-15T09:57:12.929Z,14.10
2019-03-15T09:59:41.648Z,14.10
2019-03-15T10:02:10.598Z,14.10
2019-03-15T10:04:39.334Z,14.20
2019-03-15T10:07:08.085Z,14.20
2019-03-15T10:09:46.429Z,14.30
2019-03-15T10:12:07.431Z,14.30
2019-03-15T10:14:36.167Z,14.40
2019-03-15T10:17:05.061Z,14.40
2019-03-15T10:19:33.894Z,14.50
2019-03-15T10:22:02.705Z,14.50
2019-03-15T10:24:31.446Z,14.50
2019-03-15T10:27:00.165Z,14.60
2019-03-15T10:29:28.905Z,14.60
2019-03-15T10:31:57.638Z,14.60
2019-03-15T10:34:26.341Z,14.70
2019-03-15T10:36:55.054Z,14.70
2019-03-15T10:39:23.802Z,14.80
2019-03-15T10:41:52.524Z,14.80
2019-03-15T10:44:21.269Z,14.80
2019-03-15T10:46:50.046Z,14.80
2019-03-15T10:49:18.753Z,14.80
2019-03-15T10:51:47.455Z,14.80
2019-03-15T10:54:16.185Z,14.80
2019-03-15T10:56:44.924Z,14.80
2019-03-15T10:59:13.656Z,14.80
2019-03-15T11:01:42.362Z,14.80
2019-03-15T11:04:11.266Z,14.80
2019-03-15T11:06:40.072Z,14.80
2019-03-15T11:09:08.902Z,14.80
2019-03-15T11:11:37.630Z,14.90
2019-03-15T11:14:06.414Z,14.90
2019-03-15T11:16:35.181Z,14.90
2019-03-15T11:19:04.010Z,14.90
2019-03-15T11:21:32.713Z,15.00
2019-03-15T11:24:01.473Z,15.00
2019-03-15T11:26:30.221Z,15.00
2019-03-15T11:28:58.898Z,15.00
2019-03-15T11:31:27.695Z,15.10
2019-03-15T11:33:56.438Z,15.00
2019-03-15T11:36:25.153Z,15.10
2019-03-15T11:38:53.905Z,15.10
2019-03-15T11:41:22.645Z,15.10
2019-03-15T11:43:51.379Z,15.10
2019-03-15T11:46:20.103Z,15.10
2019-03-15T11:48:48.811Z,15.20
2019-03-15T11:51:17.594Z,15.20
2019-03-15T11:53:46.315Z,15.30
2019-03-15T11:56:26.471Z,15.30
2019-03-15T11:58:45.493Z,15.40
2019-03-15T12:01:14.306Z,15.50
2019-03-15T12:03:52.462Z,15.50
2019-03-15T12:06:13.601Z,15.60
2019-03-15T12:08:42.330Z,15.70
2019-03-15T12:11:11.129Z,15.80
2019-03-15T12:13:39.821Z,15.80
2019-03-15T12:16:08.606Z,15.90
2019-03-15T12:18:37.321Z,16.00
2019-03-15T12:21:06.113Z,16.10
2019-03-15T12:23:34.815Z,16.10
2019-03-15T12:26:03.560Z,16.20
2019-03-15T12:28:32.269Z,16.30
2019-03-15T12:31:00.994Z,16.30
2019-03-15T12:33:29.701Z,16.30
2019-03-15T12:35:58.394Z,16.30
2019-03-15T12:38:27.125Z,16.40
2019-03-15T12:40:55.849Z,16.40
2019-03-15T12:43:24.589Z,16.40
2019-03-15T12:45:53.465Z,16.40
2019-03-15T12:48:22.174Z,16.30
2019-03-15T12:50:50.897Z,16.30
2019-03-15T12:53:19.703Z,16.30
2019-03-15T12:55:48.490Z,16.20
2019-03-15T12:58:18.057Z,16.10
2019-03-15T13:00:46.917Z,16.00
2019-03-15T13:03:15.621Z,15.90
2019-03-15T13:05:44.381Z,15.80
2019-03-15T13:08:13.178Z,15.70
2019-03-15T13:10:42.073Z,15.60
2019-03-15T13:13:10.882Z,15.50
2019-03-15T13:15:39.629Z,15.40
2019-03-15T13:18:08.352Z,15.30
2019-03-15T13:20:37.085Z,15.30
2019-03-15T13:23:05.941Z,15.20
2019-03-15T13:25:34.894Z,15.10
2019-03-15T13:28:03.624Z,15.10
2019-03-15T13:30:32.335Z,15.10
2019-03-15T13:33:02.633Z,15.00
2019-03-15T13:35:34.584Z,15.00
2019-03-15T13:38:03.341Z,15.00
2019-03-15T13:40:32.059Z,15.00
2019-03-15T13:43:00.802Z,15.00
2019-03-15T13:45:29.517Z,15.00
2019-03-15T13:47:58.313Z,15.00
2019-03-15T13:50:27.023Z,15.00
2019-03-15T13:52:55.781Z,15.00
2019-03-15T13:55:24.537Z,15.00
2019-03-15T13:57:53.233Z,14.90
2019-03-15T14:00:22.098Z,14.90
2019-03-15T14:02:50.798Z,14.90
2019-03-15T14:05:19.757Z,14.90
2019-03-15T14:07:48.498Z,14.90
2019-03-15T14:10:17.394Z,14.90
2019-03-15T14:12:46.190Z,14.90
2019-03-15T14:15:17.506Z,14.90
2019-03-15T14:17:46.292Z,14.90
2019-03-15T14:20:15.090Z,14.90
2019-03-15T14:22:43.814Z,14.80
2019-03-15T14:25:31.770Z,14.80
2019-03-15T14:28:05.126Z,14.80
2019-03-15T14:30:33.906Z,14.80
2019-03-15T14:33:02.665Z,14.80
2019-03-15T14:35:31.505Z,14.80
2019-03-15T14:38:00.481Z,14.70
2019-03-15T14:40:29.228Z,14.70
2019-03-15T14:42:58.302Z,14.60
2019-03-15T14:45:27.281Z,14.70
2019-03-15T14:47:56.074Z,14.60
2019-03-15T14:50:24.928Z,14.70
2019-03-15T14:52:53.633Z,14.60
2019-03-15T14:55:22.355Z,14.70
2019-03-15T14:57:53.195Z,14.70
2019-03-15T15:00:21.632Z,14.60
2019-03-15T15:02:50.427Z,14.60
2019-03-15T15:05:19.195Z,14.60
2019-03-15T15:07:47.942Z,14.60
2019-03-15T15:10:16.837Z,14.60
2019-03-15T15:12:45.659Z,14.60
2019-03-15T15:15:14.561Z,14.60
2019-03-15T15:17:43.381Z,14.60
2019-03-15T15:20:13.073Z,14.60
2019-03-15T15:22:41.923Z,14.60
2019-03-15T15:25:10.653Z,14.60
2019-03-15T15:27:39.431Z,14.60
2019-03-15T15:30:08.935Z,14.60
2019-03-15T15:32:37.621Z,14.60
2019-03-15T15:35:06.577Z,14.60
2019-03-15T15:37:35.477Z,14.50
2019-03-15T15:40:05.231Z,14.50
2019-03-15T15:42:34.098Z,14.50
2019-03-15T15:45:02.887Z,14.50
2019-03-15T15:47:31.669Z,14.40
2019-03-15T15:50:00.497Z,14.40
2019-03-15T15:52:29.369Z,14.40
2019-03-15T15:54:58.089Z,14.30
2019-03-15T15:57:26.895Z,14.30
2019-03-15T15:59:55.620Z,14.30
2019-03-15T16:02:24.330Z,14.20
2019-03-15T16:04:53.053Z,14.20
2019-03-15T16:07:21.762Z,14.20
2019-03-15T16:09:50.504Z,14.20
2019-03-15T16:12:19.274Z,14.20
2019-03-15T16:14:47.997Z,14.10
2019-03-15T16:17:16.718Z,14.10
2019-03-15T16:19:45.441Z,14.10
2019-03-15T16:22:14.168Z,14.10
2019-03-15T16:24:42.948Z,14.10
2019-03-15T16:27:11.674Z,14.00
2019-03-15T16:29:40.415Z,14.00
2019-03-15T16:32:09.257Z,14.00
2019-03-15T16:34:37.986Z,14.00
2019-03-15T16:37:06.757Z,14.00
2019-03-15T16:39:35.490Z,13.90
2019-03-15T16:42:04.213Z,13.90
2019-03-15T16:44:32.985Z,13.90
2019-03-15T16:47:01.714Z,13.90
2019-03-15T16:49:30.538Z,13.80
2019-03-15T16:51:59.234Z,13.80
2019-03-15T16:54:28.014Z,13.80
2019-03-15T16:56:56.851Z,13.80
2019-03-15T16:59:25.549Z,13.70
2019-03-15T17:01:54.594Z,13.70
2019-03-15T17:04:23.366Z,13.70
2019-03-15T17:06:52.065Z,13.70
2019-03-15T17:09:20.854Z,13.60
2019-03-15T17:11:49.679Z,13.60
2019-03-15T17:14:25.270Z,13.60
2019-03-15T17:16:48.906Z,13.50
2019-03-15T17:19:17.727Z,13.50
2019-03-15T17:21:46.506Z,13.50
2019-03-15T17:24:15.193Z,13.50
2019-03-15T17:26:43.911Z,13.40
2019-03-15T17:29:12.735Z,13.40
2019-03-15T17:31:41.502Z,13.30
2019-03-15T17:34:10.229Z,13.30
2019-03-15T17:36:38.976Z,13.30
2019-03-15T17:39:08.235Z,13.30
2019-03-15T17:41:36.961Z,13.20
2019-03-15T17:44:05.834Z,13.20
2019-03-15T17:46:34.602Z,13.20
2019-03-15T17:49:03.361Z,13.10
2019-03-15T17:51:32.149Z,13.10
2019-03-15T17:54:00.857Z,13.10
2019-03-15T17:56:29.578Z,13.10
2019-03-15T17:59:11.521Z,13.10
2019-03-15T18:01:28.740Z,13.10
2019-03-15T18:03:57.636Z,13.10
2019-03-15T18:06:26.593Z,13.10
2019-03-15T18:08:55.482Z,13.00
2019-03-15T18:11:24.206Z,13.00
2019-03-15T18:13:53.058Z,13.00
2019-03-15T18:16:21.785Z,13.00
2019-03-15T18:18:50.537Z,13.00
2019-03-15T18:21:19.241Z,13.00
2019-03-15T18:23:48.041Z,13.00
2019-03-15T18:26:16.849Z,12.90
2019-03-15T18:28:45.576Z,12.90
2019-03-15T18:31:14.393Z,12.90
2019-03-15T18:33:43.290Z,12.90
2019-03-15T18:36:12.017Z,12.80
2019-03-15T18:38:40.785Z,12.80
2019-03-15T18:41:09.622Z,12.70
2019-03-15T18:43:38.327Z,12.70
2019-03-15T18:46:07.041Z,12.70
2019-03-15T18:48:35.776Z,12.70
2019-03-15T18:51:04.501Z,12.60
2019-03-15T18:53:33.207Z,12.60
2019-03-15T18:56:01.958Z,12.60
2019-03-15T18:58:30.654Z,12.50
2019-03-15T19:00:59.449Z,12.50
2019-03-15T19:03:28.173Z,12.40
2019-03-15T19:05:56.882Z,12.40
2019-03-15T19:08:25.686Z,12.40
2019-03-15T19:10:55.092Z,12.30
2019-03-15T19:13:23.861Z,12.30
2019-03-15T19:15:52.638Z,12.30
2019-03-15T19:18:21.471Z,12.20
2019-03-15T19:20:50.550Z,12.20
2019-03-15T19:23:19.686Z,12.20
2019-03-15T19:25:48.433Z,12.20
2019-03-15T19:28:17.233Z,12.20
2019-03-15T19:30:45.941Z,12.10
2019-03-15T19:33:14.665Z,12.10
2019-03-15T19:35:43.353Z,12.10
2019-03-15T19:38:14.734Z,12.10
2019-03-15T19:40:42.604Z,12.10
2019-03-15T19:43:11.423Z,12.00
2019-03-15T19:45:40.257Z,12.00
2019-03-15T19:48:09.128Z,12.00
2019-03-15T19:50:37.878Z,12.00
2019-03-15T19:53:06.650Z,11.90
2019-03-15T19:55:35.393Z,11.90
2019-03-15T19:58:04.198Z,11.90
2019-03-15T20:00:35.938Z,11.90
2019-03-15T20:03:04.875Z,11.80
2019-03-15T20:05:33.611Z,11.80
2019-03-15T20:08:02.465Z,11.80
2019-03-15T20:10:31.180Z,11.80
2019-03-15T20:13:02.424Z,11.70
2019-03-15T20:15:30.305Z,11.70
2019-03-15T20:17:59.122Z,11.70
2019-03-15T20:20:27.832Z,11.70
2019-03-15T20:22:56.590Z,11.70
2019-03-15T20:25:25.467Z,11.60
2019-03-15T20:27:54.213Z,11.60
2019-03-15T20:30:26.163Z,11.60
2019-03-15T20:32:53.480Z,11.60
2019-03-15T20:35:22.294Z,11.60
2019-03-15T20:37:51.009Z,11.60
2019-03-15T20:40:19.901Z,11.60
2019-03-15T20:42:48.604Z,11.50
2019-03-15T20:45:17.409Z,11.50
2019-03-15T20:47:46.526Z,11.50
2019-03-15T20:50:15.518Z,11.50
2019-03-15T20:52:44.228Z,11.50
2019-03-15T20:55:13.351Z,11.40
2019-03-15T20:57:42.070Z,11.40
2019-03-15T21:00:12.811Z,11.40
2019-03-15T21:02:41.615Z,11.40
2019-03-15T21:05:10.433Z,11.40
2019-03-15T21:07:39.293Z,11.40
2019-03-15T21:10:08.926Z,11.40
2019-03-15T21:12:37.632Z,11.30
2019-03-15T21:15:07.018Z,11.30
2019-03-15T21:17:38.022Z,11.30
2019-03-15T21:20:06.578Z,11.30
2019-03-15T21:22:35.444Z,11.30
2019-03-15T21:25:04.430Z,11.30
2019-03-15T21:27:33.138Z,11.30
2019-03-15T21:30:01.858Z,11.30
2019-03-15T21:32:30.657Z,11.30
2019-03-15T21:34:59.485Z,11.30
2019-03-15T21:37:29.738Z,11.30
2019-03-15T21:39:58.697Z,11.30
2019-03-15T21:42:27.492Z,11.30
2019-03-15T21:44:56.273Z,11.30
2019-03-15T21:47:25.024Z,11.30
2019-03-15T21:49:53.802Z,11.30
2019-03-15T21:52:22.537Z,11.30
2019-03-15T21:54:51.341Z,11.40
2019-03-15T21:57:20.085Z,11.40
2019-03-15T21:59:48.914Z,11.40
2019-03-15T22:02:17.765Z,11.40
2019-03-15T22:04:46.633Z,11.40
2019-03-15T22:07:15.530Z,11.50
2019-03-15T22:09:44.275Z,11.50
2019-03-15T22:12:13.034Z,11.50
2019-03-15T22:14:41.877Z,11.50
2019-03-15T22:17:10.669Z,11.50
2019-03-15T22:19:39.425Z,11.50
2019-03-15T22:22:08.156Z,11.50
2019-03-15T22:24:36.906Z,11.50
2019-03-15T22:27:05.630Z,11.60
2019-03-15T22:29:34.358Z,11.60
2019-03-15T22:32:03.101Z,11.60
2019-03-15T22:34:31.830Z,11.60
2019-03-15T22:37:00.549Z,11.60
2019-03-15T22:39:29.433Z,11.60
2019-03-15T22:41:58.307Z,11.60
2019-03-15T22:44:27.011Z,11.60
2019-03-15T22:46:55.750Z,11.60
2019-03-15T22:49:24.469Z,11.60
2019-03-15T22:51:53.195Z,11.70
2019-03-15T22:54:21.934Z,11.70
2019-03-15T22:56:50.646Z,11.70
2019-03-15T22:59:19.365Z,11.70
2019-03-15T23:01:48.613Z,11.70
2019-03-15T23:04:17.406Z,11.70
2019-03-15T23:06:46.098Z,11.80
2019-03-15T23:09:14.982Z,11.80
2019-03-15T23:11:43.677Z,11.80
2019-03-15T23:14:12.386Z,11.80
2019-03-15T23:16:41.125Z,11.80
2019-03-15T23:19:09.938Z,11.80
2019-03-15T23:21:38.725Z,11.80
2019-03-15T23:24:07.465Z,11.80
2019-03-15T23:26:36.183Z,11.80
2019-03-15T23:29:04.975Z,11.80
2019-03-15T23:31:43.063Z,11.80
2019-03-15T23:34:04.225Z,11.80
2019-03-15T23:36:32.935Z,11.90
2019-03-15T23:39:01.672Z,11.90
2019-03-15T23:41:30.377Z,11.90
2019-03-15T23:43:59.094Z,11.80
2019-03-15T23:46:27.825Z,11.90
2019-03-15T23:48:56.608Z,11.80
2019-03-15T23:51:25.453Z,11.80
2019-03-15T23:53:54.189Z,11.80
2019-03-15T23:56:23.073Z,11.80
2019-03-15T23:58:51.793Z,11.80
